createdAt,value
2022-12-11T00:01:22.742Z,76.06
2022-12-11T00:03:53.419Z,75.97
2022-12-11T00:06:25.300Z,76.13
2022-12-11T00:08:57.035Z,75.72
2022-12-11T00:11:27.618Z,75.74
2022-12-11T00:13:58.318Z,75.96
2022-12-11T00:16:28.953Z,75.83
2022-12-11T00:18:59.865Z,75.79
2022-12-11T00:21:30.579Z,75.83
2022-12-11T00:24:01.273Z,75.80
2022-12-11T00:26:32.047Z,75.89
2022-12-11T00:29:02.734Z,75.97
2022-12-11T00:31:33.510Z,75.89
2022-12-11T00:34:05.212Z,76.09
2022-12-11T00:36:36.297Z,76.00
2022-12-11T00:39:08.082Z,75.95
2022-12-11T00:41:38.679Z,75.72
2022-12-11T00:44:09.351Z,75.72
2022-12-11T00:46:40.196Z,75.68
2022-12-11T00:49:10.894Z,75.84
2022-12-11T00:51:41.542Z,75.77
2022-12-11T00:54:12.184Z,76.03
2022-12-11T00:56:42.807Z,76.34
2022-12-11T00:59:13.621Z,75.98
2022-12-11T01:01:44.268Z,75.87
2022-12-11T01:04:14.886Z,75.84
2022-12-11T01:06:45.618Z,75.72
2022-12-11T01:09:35.783Z,75.46
2022-12-11T01:12:08.080Z,75.69
2022-12-11T01:14:38.764Z,75.52
2022-12-11T01:17:09.380Z,75.84
2022-12-11T01:19:40.123Z,75.65
2022-12-11T01:22:11.805Z,75.42
2022-12-11T01:24:42.465Z,75.25
2022-12-11T01:27:13.080Z,74.86
2022-12-11T01:29:43.781Z,75.48
2022-12-11T01:32:14.468Z,75.51
2022-12-11T01:34:45.506Z,75.89
2022-12-11T01:37:16.283Z,75.88
2022-12-11T01:39:46.938Z,76.12
2022-12-11T01:42:20.691Z,75.85
2022-12-11T01:45:28.928Z,75.85
2022-12-11T01:48:05.078Z,75.63
2022-12-11T01:50:39.818Z,75.47
2022-12-11T01:53:14.587Z,75.46
2022-12-11T01:55:47.423Z,75.44
2022-12-11T01:58:19.872Z,75.46
2022-12-11T02:00:50.664Z,75.41
2022-12-11T02:03:22.196Z,75.92
2022-12-11T02:05:53.193Z,75.98
2022-12-11T02:08:24.298Z,75.50
2022-12-11T02:11:07.484Z,75.42
2022-12-11T02:13:50.158Z,75.62
2022-12-11T02:16:31.047Z,75.44
2022-12-11T02:19:09.330Z,75.27
2022-12-11T02:21:42.857Z,75.18
2022-12-11T02:24:36.706Z,75.07
2022-12-11T02:27:27.051Z,75.20
2022-12-11T02:30:02.316Z,75.36
2022-12-11T02:32:39.680Z,75.55
2022-12-11T02:35:16.437Z,75.28
2022-12-11T02:37:49.778Z,75.17
2022-12-11T02:40:27.590Z,74.96
2022-12-11T02:43:01.183Z,74.85
2022-12-11T02:45:33.192Z,74.88
2022-12-11T02:48:07.544Z,75.12
2022-12-11T02:50:43.614Z,74.89
2022-12-11T02:53:18.218Z,74.96
2022-12-11T02:55:52.186Z,74.98
2022-12-11T02:58:26.452Z,74.72
2022-12-11T03:00:57.368Z,74.67
2022-12-11T03:03:29.649Z,74.60
2022-12-11T03:06:00.483Z,74.81
2022-12-11T03:08:31.210Z,74.74
2022-12-11T03:11:02.106Z,74.47
2022-12-11T03:13:32.890Z,74.56
2022-12-11T03:16:15.793Z,74.63
2022-12-11T03:18:58.182Z,74.73
2022-12-11T03:21:34.413Z,74.68
2022-12-11T03:24:11.226Z,74.37
2022-12-11T03:26:54.511Z,74.65
2022-12-11T03:29:32.624Z,74.37
2022-12-11T03:32:09.700Z,74.16
2022-12-11T03:34:45.886Z,74.29
2022-12-11T03:37:17.845Z,74.06
2022-12-11T03:39:52.912Z,73.97
2022-12-11T03:42:25.928Z,73.58
2022-12-11T03:45:00.115Z,73.82
2022-12-11T03:47:32.414Z,73.68
2022-12-11T03:50:06.751Z,73.67
2022-12-11T03:52:45.364Z,73.46
2022-12-11T03:55:18.346Z,73.68
2022-12-11T03:57:49.394Z,73.57
2022-12-11T04:00:23.198Z,73.48
2022-12-11T04:03:12.992Z,73.81
2022-12-11T04:05:46.133Z,73.67
2022-12-11T04:08:18.412Z,73.76
2022-12-11T04:11:09.702Z,73.95
2022-12-11T04:13:41.638Z,74.26
2022-12-11T04:16:12.420Z,73.79
2022-12-11T04:19:00.707Z,73.61
2022-12-11T04:21:57.351Z,74.08
2022-12-11T04:24:28.125Z,73.92
2022-12-11T04:26:58.749Z,73.89
2022-12-11T04:29:29.390Z,73.88
2022-12-11T04:32:00.027Z,73.78
2022-12-11T04:34:31.203Z,73.70
2022-12-11T04:37:01.813Z,74.42
2022-12-11T04:39:32.516Z,74.04
2022-12-11T04:42:03.115Z,73.81
2022-12-11T04:44:34.533Z,74.00
2022-12-11T04:47:05.318Z,73.72
2022-12-11T04:49:36.200Z,73.71
2022-12-11T04:52:07.515Z,73.65
2022-12-11T04:54:38.353Z,73.57
2022-12-11T04:57:09.072Z,73.57
2022-12-11T04:59:40.141Z,73.53
2022-12-11T05:02:10.771Z,73.67
2022-12-11T05:04:41.419Z,73.64
2022-12-11T05:07:12.437Z,73.71
2022-12-11T05:09:43.049Z,73.58
2022-12-11T05:12:13.762Z,73.61
2022-12-11T05:14:44.615Z,73.76
2022-12-11T05:17:15.253Z,73.69
2022-12-11T05:19:45.943Z,73.74
2022-12-11T05:22:16.708Z,73.83
2022-12-11T05:24:47.434Z,74.27
2022-12-11T05:27:18.157Z,74.00
2022-12-11T05:29:48.890Z,74.38
2022-12-11T05:32:19.646Z,75.30
2022-12-11T05:34:51.127Z,75.44
2022-12-11T05:37:21.791Z,75.69
2022-12-11T05:39:52.642Z,75.55
2022-12-11T05:42:28.607Z,75.43
2022-12-11T05:44:59.772Z,75.39
2022-12-11T05:47:31.676Z,75.36
2022-12-11T05:50:02.369Z,76.01
2022-12-11T05:52:34.491Z,75.69
2022-12-11T05:55:05.682Z,75.61
2022-12-11T05:57:36.488Z,75.38
2022-12-11T06:00:08.909Z,75.02
2022-12-11T06:02:40.037Z,75.26
2022-12-11T06:05:11.361Z,75.49
2022-12-11T06:07:42.505Z,75.43
2022-12-11T06:10:13.678Z,74.93
2022-12-11T06:12:44.977Z,74.72
2022-12-11T06:15:15.607Z,74.73
2022-12-11T06:17:46.349Z,74.99
2022-12-11T06:20:17.266Z,74.72
2022-12-11T06:22:48.044Z,75.10
2022-12-11T06:25:18.949Z,75.12
2022-12-11T06:27:49.601Z,75.84
2022-12-11T06:30:20.322Z,75.70
2022-12-11T06:32:51.193Z,75.59
2022-12-11T06:35:21.963Z,75.01
2022-12-11T06:37:52.558Z,74.78
2022-12-11T06:40:23.381Z,74.99
2022-12-11T06:42:54.961Z,74.72
2022-12-11T06:45:25.721Z,74.71
2022-12-11T06:47:56.479Z,74.94
2022-12-11T06:50:27.190Z,74.82
2022-12-11T06:52:58.091Z,75.14
2022-12-11T06:55:28.778Z,74.78
2022-12-11T06:57:59.671Z,74.48
2022-12-11T07:00:30.571Z,74.39
2022-12-11T07:03:01.305Z,74.87
2022-12-11T07:05:32.202Z,75.00
2022-12-11T07:08:03.020Z,74.82
2022-12-11T07:10:35.052Z,74.54
2022-12-11T07:13:05.786Z,74.50
2022-12-11T07:15:40.369Z,74.27
2022-12-11T07:18:12.042Z,74.81
2022-12-11T07:20:42.670Z,74.46
2022-12-11T07:23:13.443Z,74.23
2022-12-11T07:25:44.538Z,74.30
2022-12-11T07:28:16.905Z,75.00
2022-12-11T07:30:47.744Z,75.36
2022-12-11T07:33:18.594Z,75.22
2022-12-11T07:35:49.315Z,74.89
2022-12-11T07:38:20.059Z,74.55
2022-12-11T07:40:51.969Z,74.63
2022-12-11T07:43:22.639Z,74.28
2022-12-11T07:45:53.450Z,75.07
2022-12-11T07:48:24.172Z,75.26
2022-12-11T07:50:54.883Z,75.04
2022-12-11T07:53:25.571Z,75.49
2022-12-11T07:55:56.297Z,74.95
2022-12-11T07:58:26.986Z,74.55
2022-12-11T08:00:58.092Z,74.53
2022-12-11T08:03:29.273Z,74.61
2022-12-11T08:06:00.045Z,74.63
2022-12-11T08:08:30.794Z,74.93
2022-12-11T08:11:05.305Z,75.03
2022-12-11T08:13:36.204Z,74.98
2022-12-11T08:16:08.072Z,75.23
2022-12-11T08:18:39.669Z,74.79
2022-12-11T08:21:12.147Z,75.07
2022-12-11T08:23:42.865Z,74.78
2022-12-11T08:26:15.356Z,75.23
2022-12-11T08:28:46.124Z,74.80
2022-12-11T08:31:17.994Z,74.47
2022-12-11T08:33:50.207Z,74.21
2022-12-11T08:36:23.807Z,74.43
2022-12-11T08:38:55.270Z,74.90
2022-12-11T08:41:28.416Z,75.38
2022-12-11T08:44:01.781Z,74.77
2022-12-11T08:46:32.621Z,74.20
2022-12-11T08:49:03.572Z,73.88
2022-12-11T08:51:34.724Z,73.67
2022-12-11T08:54:05.431Z,73.06
2022-12-11T08:56:36.043Z,73.52
2022-12-11T08:59:06.877Z,73.32
2022-12-11T09:01:37.602Z,73.08
2022-12-11T09:04:08.432Z,73.02
2022-12-11T09:06:39.050Z,72.82
2022-12-11T09:09:09.781Z,72.41
2022-12-11T09:11:40.557Z,72.26
2022-12-11T09:14:11.286Z,72.38
2022-12-11T09:16:43.017Z,72.66
2022-12-11T09:19:15.427Z,72.03
2022-12-11T09:21:46.758Z,72.36
2022-12-11T09:24:17.915Z,71.95
2022-12-11T09:26:48.548Z,78.84
2022-12-11T09:29:19.311Z,82.46
2022-12-11T09:31:49.963Z,75.87
2022-12-11T09:34:26.094Z,73.22
2022-12-11T09:37:00.095Z,72.06
2022-12-11T09:39:30.702Z,71.61
2022-12-11T09:42:09.821Z,71.25
2022-12-11T09:44:48.119Z,70.62
2022-12-11T09:47:28.496Z,70.61
2022-12-11T09:50:13.865Z,70.34
2022-12-11T09:52:55.475Z,70.25
2022-12-11T09:55:31.264Z,69.61
2022-12-11T09:58:10.295Z,69.48
2022-12-11T10:00:43.331Z,69.46
2022-12-11T10:03:32.647Z,69.44
2022-12-11T10:06:10.786Z,69.71
2022-12-11T10:08:51.524Z,69.42
2022-12-11T10:11:41.139Z,69.20
2022-12-11T10:14:20.522Z,69.60
2022-12-11T10:16:51.569Z,69.38
2022-12-11T10:19:25.601Z,69.69
2022-12-11T10:21:58.999Z,69.54
2022-12-11T10:25:09.375Z,69.64
2022-12-11T10:27:31.437Z,69.41
2022-12-11T10:30:15.838Z,69.21
2022-12-11T10:32:54.127Z,69.01
2022-12-11T10:35:37.107Z,68.49
2022-12-11T10:38:17.404Z,68.69
2022-12-11T10:40:50.838Z,68.52
2022-12-11T10:43:21.576Z,68.50
2022-12-11T10:45:56.224Z,68.38
2022-12-11T10:48:27.098Z,68.44
2022-12-11T10:51:05.409Z,68.60
2022-12-11T10:53:37.083Z,68.39
2022-12-11T10:56:08.920Z,68.35
2022-12-11T10:58:49.955Z,67.70
2022-12-11T11:01:24.417Z,68.34
2022-12-11T11:04:04.339Z,68.18
2022-12-11T11:06:36.292Z,68.22
2022-12-11T11:09:20.522Z,68.03
2022-12-11T11:11:53.409Z,68.16
2022-12-11T11:14:24.848Z,68.13
2022-12-11T11:16:59.108Z,67.86
2022-12-11T11:19:33.694Z,68.26
2022-12-11T11:22:07.061Z,67.85
2022-12-11T11:24:41.154Z,68.13
2022-12-11T11:27:27.027Z,68.17
2022-12-11T11:30:00.567Z,68.13
2022-12-11T11:32:35.893Z,68.29
2022-12-11T11:35:21.238Z,68.55
2022-12-11T11:38:03.646Z,68.99
2022-12-11T11:40:43.318Z,69.31
2022-12-11T11:43:22.608Z,68.87
2022-12-11T11:45:59.214Z,68.98
2022-12-11T11:48:38.618Z,69.31
2022-12-11T11:51:14.838Z,69.21
2022-12-11T11:53:51.633Z,69.30
2022-12-11T11:56:27.356Z,69.24
2022-12-11T11:59:14.955Z,69.19
2022-12-11T12:01:46.761Z,69.63
2022-12-11T12:04:18.448Z,69.54
2022-12-11T12:07:06.785Z,69.25
2022-12-11T12:09:50.031Z,69.36
2022-12-11T12:12:37.427Z,68.94
2022-12-11T12:15:31.302Z,68.84
2022-12-11T12:18:11.461Z,68.86
2022-12-11T12:20:49.657Z,68.38
2022-12-11T12:23:42.243Z,68.35
2022-12-11T12:26:19.858Z,68.63
2022-12-11T12:29:00.522Z,68.68
2022-12-11T12:31:52.772Z,68.57
2022-12-11T12:34:35.995Z,67.65
2022-12-11T12:37:18.978Z,67.36
2022-12-11T12:40:02.646Z,67.77
2022-12-11T12:42:45.781Z,67.78
2022-12-11T12:45:27.844Z,68.36
2022-12-11T12:47:59.107Z,68.11
2022-12-11T12:50:38.251Z,67.69
2022-12-11T12:53:12.622Z,67.33
2022-12-11T12:55:45.138Z,67.38
2022-12-11T12:58:30.391Z,67.17
2022-12-11T13:01:16.783Z,67.25
2022-12-11T13:03:58.281Z,67.40
2022-12-11T13:06:35.219Z,67.36
2022-12-11T13:09:19.801Z,67.55
2022-12-11T13:11:54.590Z,67.81
2022-12-11T13:14:34.030Z,68.15
2022-12-11T13:17:23.902Z,68.64
2022-12-11T13:20:13.896Z,69.01
2022-12-11T13:22:57.584Z,69.00
2022-12-11T13:25:32.110Z,68.83
2022-12-11T13:28:22.049Z,68.85
2022-12-11T13:31:02.992Z,68.85
2022-12-11T13:33:39.431Z,68.65
2022-12-11T13:36:25.597Z,68.57
2022-12-11T13:38:59.922Z,68.56
2022-12-11T13:41:31.575Z,68.71
2022-12-11T13:44:03.722Z,68.82
2022-12-11T13:46:39.162Z,69.26
2022-12-11T13:49:20.036Z,69.01
2022-12-11T13:51:57.362Z,68.73
2022-12-11T13:54:30.040Z,69.19
2022-12-11T13:57:15.166Z,69.27
2022-12-11T13:59:52.797Z,69.27
2022-12-11T14:02:28.600Z,69.63
2022-12-11T14:05:02.143Z,70.02
2022-12-11T14:07:34.871Z,70.33
2022-12-11T14:10:10.810Z,70.65
2022-12-11T14:12:53.876Z,70.89
2022-12-11T14:15:25.218Z,71.39
2022-12-11T14:17:56.856Z,71.57
2022-12-11T14:20:29.891Z,71.78
2022-12-11T14:23:09.510Z,72.05
2022-12-11T14:25:40.209Z,72.50
2022-12-11T14:28:18.723Z,72.51
2022-12-11T14:30:51.549Z,72.41
2022-12-11T14:33:27.200Z,72.32
2022-12-11T14:35:58.865Z,72.48
2022-12-11T14:38:34.619Z,72.63
2022-12-11T14:41:12.608Z,72.64
2022-12-11T14:43:47.850Z,72.90
2022-12-11T14:46:23.611Z,72.68
2022-12-11T14:49:01.601Z,72.65
2022-12-11T14:51:39.113Z,72.32
2022-12-11T14:54:20.245Z,72.05
2022-12-11T14:56:51.553Z,72.01
2022-12-11T14:59:30.125Z,71.76
2022-12-11T15:02:04.962Z,71.61
2022-12-11T15:04:36.070Z,71.09
2022-12-11T15:07:22.873Z,71.21
2022-12-11T15:09:53.776Z,71.54
2022-12-11T15:12:24.906Z,71.39
2022-12-11T15:15:00.827Z,71.51
2022-12-11T15:17:37.464Z,71.00
2022-12-11T15:20:12.659Z,71.00
2022-12-11T15:22:46.424Z,71.00
2022-12-11T15:25:24.329Z,70.99
2022-12-11T15:27:56.521Z,70.65
2022-12-11T15:30:33.916Z,70.65
2022-12-11T15:33:22.733Z,71.24
2022-12-11T15:35:59.343Z,71.14
2022-12-11T15:38:33.053Z,71.01
2022-12-11T15:41:04.492Z,71.21
2022-12-11T15:43:38.734Z,71.17
2022-12-11T15:46:09.882Z,71.31
2022-12-11T15:48:40.630Z,71.43
2022-12-11T15:51:11.893Z,71.61
2022-12-11T15:53:42.547Z,71.64
2022-12-11T15:56:17.074Z,71.84
2022-12-11T15:58:49.898Z,72.41
2022-12-11T16:01:20.925Z,72.35
2022-12-11T16:03:51.750Z,72.47
2022-12-11T16:06:22.539Z,72.53
2022-12-11T16:08:53.487Z,73.17
2022-12-11T16:11:24.235Z,73.09
2022-12-11T16:13:55.018Z,72.74
2022-12-11T16:16:25.781Z,72.98
2022-12-11T16:18:56.753Z,72.91
2022-12-11T16:21:27.749Z,73.14
2022-12-11T16:23:58.465Z,72.93
2022-12-11T16:26:29.177Z,73.09
2022-12-11T16:28:59.830Z,72.87
2022-12-11T16:31:30.977Z,72.75
2022-12-11T16:34:01.744Z,72.97
2022-12-11T16:36:32.508Z,73.27
2022-12-11T16:39:03.478Z,73.40
2022-12-11T16:41:34.333Z,73.59
2022-12-11T16:44:05.720Z,73.42
2022-12-11T16:46:36.369Z,73.08
2022-12-11T16:49:07.267Z,73.56
2022-12-11T16:51:37.937Z,73.19
2022-12-11T16:54:08.647Z,73.33
2022-12-11T16:56:40.222Z,72.95
2022-12-11T16:59:12.919Z,73.13
2022-12-11T17:01:44.941Z,73.19
2022-12-11T17:04:15.845Z,72.91
2022-12-11T17:06:48.623Z,72.78
2022-12-11T17:09:19.461Z,72.76
2022-12-11T17:11:50.562Z,72.46
2022-12-11T17:14:21.185Z,72.61
2022-12-11T17:16:51.873Z,72.34
2022-12-11T17:19:23.421Z,72.51
2022-12-11T17:21:56.087Z,72.73
2022-12-11T17:24:26.848Z,72.79
2022-12-11T17:26:57.875Z,72.59
2022-12-11T17:29:28.710Z,72.44
2022-12-11T17:31:59.571Z,72.58
2022-12-11T17:34:36.032Z,72.88
2022-12-11T17:37:08.735Z,72.84
2022-12-11T17:39:39.963Z,73.32
2022-12-11T17:42:10.883Z,73.07
2022-12-11T17:44:41.561Z,72.93
2022-12-11T17:47:13.013Z,72.68
2022-12-11T17:49:43.736Z,72.55
2022-12-11T17:52:14.389Z,72.77
2022-12-11T17:54:45.086Z,72.63
2022-12-11T17:57:15.937Z,72.91
2022-12-11T17:59:46.914Z,72.60
2022-12-11T18:02:17.590Z,72.56
2022-12-11T18:04:50.258Z,72.63
2022-12-11T18:07:22.704Z,72.51
2022-12-11T18:09:53.358Z,72.62
2022-12-11T18:12:24.076Z,72.64
2022-12-11T18:14:54.717Z,72.60
2022-12-11T18:17:25.383Z,72.64
2022-12-11T18:19:56.389Z,72.46
2022-12-11T18:22:27.049Z,72.72
2022-12-11T18:24:59.342Z,72.83
2022-12-11T18:27:30.635Z,72.66
2022-12-11T18:30:01.218Z,72.74
2022-12-11T18:32:32.042Z,73.13
2022-12-11T18:35:04.662Z,73.12
2022-12-11T18:37:35.948Z,73.43
2022-12-11T18:40:08.998Z,73.52
2022-12-11T18:42:39.855Z,73.22
2022-12-11T18:45:12.212Z,73.28
2022-12-11T18:47:43.185Z,73.59
2022-12-11T18:50:13.827Z,73.62
2022-12-11T18:52:44.458Z,74.19
2022-12-11T18:55:15.294Z,74.17
2022-12-11T18:57:45.891Z,73.98
2022-12-11T19:00:18.620Z,74.08
2022-12-11T19:02:53.180Z,74.60
2022-12-11T19:05:24.278Z,74.70
2022-12-11T19:07:55.124Z,74.48
2022-12-11T19:10:25.892Z,74.75
2022-12-11T19:12:57.034Z,74.83
2022-12-11T19:15:27.775Z,75.11
2022-12-11T19:17:58.445Z,74.85
2022-12-11T19:23:20.944Z,74.95
2022-12-11T19:25:52.113Z,75.07
2022-12-11T19:28:22.734Z,75.35
2022-12-11T19:30:53.327Z,75.39
2022-12-11T19:33:24.027Z,74.93
2022-12-11T19:36:03.263Z,75.33
2022-12-11T19:38:33.799Z,75.26
2022-12-11T19:41:08.059Z,75.31
2022-12-11T19:43:39.142Z,75.12
2022-12-11T19:46:10.974Z,75.05
2022-12-11T19:48:42.074Z,75.25
2022-12-11T19:51:15.351Z,75.06
2022-12-11T19:53:47.724Z,75.05
2022-12-11T19:56:19.611Z,74.93
2022-12-11T19:58:50.737Z,74.68
2022-12-11T20:01:25.893Z,74.85
2022-12-11T20:03:59.642Z,74.73
2022-12-11T20:06:32.654Z,74.73
2022-12-11T20:09:05.206Z,74.70
2022-12-11T20:11:36.076Z,74.71
2022-12-11T20:14:07.131Z,74.54
2022-12-11T20:17:09.137Z,74.72
2022-12-11T20:19:28.407Z,74.54
2022-12-11T20:21:59.357Z,74.55
2022-12-11T20:24:31.239Z,74.52
2022-12-11T20:27:01.843Z,74.66
2022-12-11T20:29:32.406Z,74.72
2022-12-11T20:32:03.122Z,74.92
2022-12-11T20:34:34.054Z,74.77
2022-12-11T20:37:04.694Z,74.73
2022-12-11T20:39:35.694Z,75.12
2022-12-11T20:42:06.698Z,75.09
2022-12-11T20:44:37.392Z,74.96
2022-12-11T20:47:08.633Z,75.02
2022-12-11T20:49:39.423Z,74.95
2022-12-11T20:52:10.210Z,75.27
2022-12-11T20:54:41.039Z,75.77
2022-12-11T20:57:12.439Z,75.41
2022-12-11T20:59:43.225Z,75.33
2022-12-11T21:02:16.201Z,75.62
2022-12-11T21:04:47.155Z,75.88
2022-12-11T21:07:17.819Z,75.71
2022-12-11T21:09:48.742Z,76.03
2022-12-11T21:12:19.405Z,76.06
2022-12-11T21:14:50.306Z,76.18
2022-12-11T21:17:20.903Z,76.01
2022-12-11T21:19:51.616Z,75.85
2022-12-11T21:22:22.252Z,75.80
2022-12-11T21:24:52.872Z,76.13
2022-12-11T21:27:24.648Z,76.21
2022-12-11T21:29:55.290Z,76.67
2022-12-11T21:32:26.441Z,76.84
2022-12-11T21:34:57.510Z,76.93
2022-12-11T21:37:28.208Z,77.45
2022-12-11T21:40:00.217Z,77.38
2022-12-11T21:42:31.151Z,77.26
2022-12-11T21:47:54.112Z,77.57
2022-12-11T21:50:24.763Z,77.83
2022-12-11T21:52:55.398Z,77.71
2022-12-11T21:55:26.898Z,77.74
2022-12-11T21:57:58.134Z,77.80
2022-12-11T22:00:29.290Z,78.16
2022-12-11T22:03:00.214Z,77.80
2022-12-11T22:05:30.986Z,77.89
2022-12-11T22:08:01.712Z,77.52
2022-12-11T22:10:32.539Z,77.63
2022-12-11T22:13:03.178Z,77.51
2022-12-11T22:15:35.446Z,77.88
2022-12-11T22:18:06.758Z,77.50
2022-12-11T22:20:37.421Z,77.50
2022-12-11T22:23:08.252Z,77.76
2022-12-11T22:25:38.980Z,77.59
2022-12-11T22:28:09.749Z,77.95
2022-12-11T22:30:41.908Z,78.23
2022-12-11T22:33:12.790Z,78.48
2022-12-11T22:35:43.470Z,78.27
2022-12-11T22:38:14.240Z,78.02
2022-12-11T22:40:44.931Z,78.33
2022-12-11T22:43:15.566Z,78.25
2022-12-11T22:45:46.329Z,78.50
2022-12-11T22:48:17.159Z,78.57
2022-12-11T22:50:48.221Z,78.44
2022-12-11T22:53:18.922Z,78.24
2022-12-11T22:55:49.511Z,78.35
2022-12-11T22:58:21.957Z,78.14
2022-12-11T23:00:52.795Z,78.29
2022-12-11T23:03:23.489Z,78.20
2022-12-11T23:05:54.255Z,78.48
2022-12-11T23:08:25.609Z,78.67
2022-12-11T23:10:56.375Z,78.59
2022-12-11T23:13:27.069Z,78.63
2022-12-11T23:15:57.663Z,78.69
2022-12-11T23:18:28.376Z,78.99
2022-12-11T23:20:59.377Z,78.63
2022-12-11T23:23:30.079Z,78.51
2022-12-11T23:26:01.448Z,78.69
2022-12-11T23:28:32.264Z,78.48
2022-12-11T23:31:03.172Z,78.72
2022-12-11T23:33:34.003Z,78.28
2022-12-11T23:36:05.654Z,78.86
2022-12-11T23:38:36.659Z,78.75
2022-12-11T23:41:09.415Z,78.54
2022-12-11T23:43:40.562Z,78.68
2022-12-11T23:46:14.708Z,78.65
2022-12-11T23:48:45.614Z,78.66
2022-12-11T23:51:18.580Z,78.82
2022-12-11T23:53:50.046Z,78.94
2022-12-11T23:56:22.812Z,79.03
2022-12-11T23:58:54.501Z,78.98
